sensor_id;sensor_type;location;lat;lon;timestamp;P1;durP1;ratioP1;P2;durP2;ratioP2
10550;SDS011;5324;50.684;3.862;2023-03-24T00:00:40;3.40;;;2.00;;
10550;SDS011;5324;50.684;3.862;2023-03-24T00:03:06;3.57;;;2.00;;
10550;SDS011;5324;50.684;3.862;2023-03-24T00:05:32;2.47;;;2.10;;
10550;SDS011;5324;50.684;3.862;2023-03-24T00:07:58;2.20;;;2.00;;
10550;SDS011;5324;50.684;3.862;2023-03-24T00:10:26;5.10;;;2.20;;
10550;SDS011;5324;50.684;3.862;2023-03-24T00:12:54;2.30;;;1.67;;
10550;SDS011;5324;50.684;3.862;2023-03-24T00:15:22;2.37;;;1.70;;
10550;SDS011;5324;50.684;3.862;2023-03-24T00:17:49;2.27;;;2.00;;
10550;SDS011;5324;50.684;3.862;2023-03-24T00:20:15;3.03;;;1.70;;
10550;SDS011;5324;50.684;3.862;2023-03-24T00:22:45;2.73;;;2.17;;
10550;SDS011;5324;50.684;3.862;2023-03-24T00:25:16;4.30;;;2.17;;
10550;SDS011;5324;50.684;3.862;2023-03-24T00:27:42;2.23;;;1.87;;
10550;SDS011;5324;50.684;3.862;2023-03-24T00:30:09;2.70;;;2.00;;
10550;SDS011;5324;50.684;3.862;2023-03-24T00:32:35;2.40;;;1.73;;
10550;SDS011;5324;50.684;3.862;2023-03-24T00:35:06;2.83;;;1.93;;
10550;SDS011;5324;50.684;3.862;2023-03-24T00:37:36;1.97;;;1.70;;
10550;SDS011;5324;50.684;3.862;2023-03-24T00:40:07;2.73;;;2.10;;
10550;SDS011;5324;50.684;3.862;2023-03-24T00:42:36;2.27;;;2.00;;
10550;SDS011;5324;50.684;3.862;2023-03-24T00:45:03;2.60;;;1.80;;
10550;SDS011;5324;50.684;3.862;2023-03-24T00:47:30;3.83;;;2.30;;
10550;SDS011;5324;50.684;3.862;2023-03-24T00:50:01;2.50;;;1.70;;
10550;SDS011;5324;50.684;3.862;2023-03-24T00:52:27;3.60;;;2.13;;
10550;SDS011;5324;50.684;3.862;2023-03-24T00:54:58;2.20;;;2.00;;
10550;SDS011;5324;50.684;3.862;2023-03-24T00:57:26;1.70;;;1.60;;
10550;SDS011;5324;50.684;3.862;2023-03-24T00:59:54;2.53;;;1.77;;
10550;SDS011;5324;50.684;3.862;2023-03-24T01:02:21;2.73;;;1.73;;
10550;SDS011;5324;50.684;3.862;2023-03-24T01:04:54;1.63;;;1.53;;
10550;SDS011;5324;50.684;3.862;2023-03-24T01:07:21;2.40;;;2.07;;
10550;SDS011;5324;50.684;3.862;2023-03-24T01:09:47;2.10;;;1.80;;
10550;SDS011;5324;50.684;3.862;2023-03-24T01:12:22;3.53;;;2.20;;
10550;SDS011;5324;50.684;3.862;2023-03-24T01:14:48;2.40;;;2.20;;
10550;SDS011;5324;50.684;3.862;2023-03-24T01:17:14;2.30;;;2.10;;
10550;SDS011;5324;50.684;3.862;2023-03-24T01:19:40;2.50;;;2.10;;
10550;SDS011;5324;50.684;3.862;2023-03-24T01:22:06;2.37;;;1.80;;
10550;SDS011;5324;50.684;3.862;2023-03-24T01:24:33;1.87;;;1.77;;
10550;SDS011;5324;50.684;3.862;2023-03-24T01:26:59;2.40;;;2.20;;
10550;SDS011;5324;50.684;3.862;2023-03-24T01:29:25;2.17;;;1.97;;
10550;SDS011;5324;50.684;3.862;2023-03-24T01:31:51;2.97;;;1.80;;
10550;SDS011;5324;50.684;3.862;2023-03-24T01:34:19;4.90;;;2.63;;
10550;SDS011;5324;50.684;3.862;2023-03-24T01:36:45;1.90;;;1.80;;
10550;SDS011;5324;50.684;3.862;2023-03-24T01:39:11;2.20;;;1.80;;
10550;SDS011;5324;50.684;3.862;2023-03-24T01:41:37;2.63;;;2.00;;
10550;SDS011;5324;50.684;3.862;2023-03-24T01:44:23;2.13;;;1.80;;
10550;SDS011;5324;50.684;3.862;2023-03-24T01:46:50;1.77;;;1.60;;
10550;SDS011;5324;50.684;3.862;2023-03-24T01:49:16;1.50;;;1.10;;
10550;SDS011;5324;50.684;3.862;2023-03-24T01:51:44;1.00;;;1.00;;
10550;SDS011;5324;50.684;3.862;2023-03-24T01:54:21;1.60;;;1.07;;
10550;SDS011;5324;50.684;3.862;2023-03-24T01:56:59;0.90;;;0.83;;
10550;SDS011;5324;50.684;3.862;2023-03-24T01:59:28;1.20;;;1.10;;
10550;SDS011;5324;50.684;3.862;2023-03-24T02:01:54;0.97;;;0.93;;
10550;SDS011;5324;50.684;3.862;2023-03-24T02:04:28;1.43;;;1.10;;
10550;SDS011;5324;50.684;3.862;2023-03-24T02:06:54;0.90;;;0.90;;
10550;SDS011;5324;50.684;3.862;2023-03-24T02:09:22;1.47;;;1.17;;
10550;SDS011;5324;50.684;3.862;2023-03-24T02:11:48;1.50;;;1.40;;
10550;SDS011;5324;50.684;3.862;2023-03-24T02:14:14;1.43;;;1.20;;
10550;SDS011;5324;50.684;3.862;2023-03-24T02:22:12;1.20;;;1.00;;
10550;SDS011;5324;50.684;3.862;2023-03-24T02:37:45;2.30;;;1.40;;
10550;SDS011;5324;50.684;3.862;2023-03-24T02:40:29;2.43;;;1.37;;
10550;SDS011;5324;50.684;3.862;2023-03-24T02:46:17;3.77;;;1.13;;
10550;SDS011;5324;50.684;3.862;2023-03-24T02:48:43;1.77;;;1.20;;
10550;SDS011;5324;50.684;3.862;2023-03-24T02:51:15;3.00;;;1.37;;
10550;SDS011;5324;50.684;3.862;2023-03-24T02:56:41;2.77;;;1.23;;
10550;SDS011;5324;50.684;3.862;2023-03-24T02:59:10;4.20;;;1.43;;
10550;SDS011;5324;50.684;3.862;2023-03-24T03:02:02;3.77;;;1.50;;
10550;SDS011;5324;50.684;3.862;2023-03-24T03:04:29;7.73;;;1.50;;
10550;SDS011;5324;50.684;3.862;2023-03-24T03:07:02;5.03;;;1.50;;
10550;SDS011;5324;50.684;3.862;2023-03-24T03:09:40;6.43;;;1.67;;
10550;SDS011;5324;50.684;3.862;2023-03-24T03:12:08;8.37;;;1.60;;
10550;SDS011;5324;50.684;3.862;2023-03-24T03:14:40;6.90;;;2.00;;
10550;SDS011;5324;50.684;3.862;2023-03-24T03:17:31;4.03;;;1.77;;
10550;SDS011;5324;50.684;3.862;2023-03-24T03:19:56;3.63;;;1.87;;
10550;SDS011;5324;50.684;3.862;2023-03-24T03:22:23;5.47;;;1.70;;
10550;SDS011;5324;50.684;3.862;2023-03-24T03:24:51;4.00;;;1.83;;
10550;SDS011;5324;50.684;3.862;2023-03-24T03:27:28;7.07;;;1.57;;
10550;SDS011;5324;50.684;3.862;2023-03-24T03:29:59;5.97;;;1.77;;
10550;SDS011;5324;50.684;3.862;2023-03-24T03:32:29;6.67;;;2.03;;
10550;SDS011;5324;50.684;3.862;2023-03-24T03:35:04;7.50;;;1.90;;
10550;SDS011;5324;50.684;3.862;2023-03-24T03:37:33;6.27;;;1.83;;
10550;SDS011;5324;50.684;3.862;2023-03-24T03:40:04;4.23;;;1.80;;
10550;SDS011;5324;50.684;3.862;2023-03-24T03:42:33;6.03;;;2.10;;
10550;SDS011;5324;50.684;3.862;2023-03-24T03:44:59;5.40;;;1.90;;
10550;SDS011;5324;50.684;3.862;2023-03-24T03:47:26;6.00;;;2.13;;
10550;SDS011;5324;50.684;3.862;2023-03-24T03:49:52;5.37;;;1.70;;
10550;SDS011;5324;50.684;3.862;2023-03-24T03:52:18;4.47;;;1.80;;
10550;SDS011;5324;50.684;3.862;2023-03-24T03:54:44;5.30;;;2.17;;
10550;SDS011;5324;50.684;3.862;2023-03-24T03:57:11;6.03;;;2.00;;
10550;SDS011;5324;50.684;3.862;2023-03-24T03:59:38;5.90;;;2.23;;
10550;SDS011;5324;50.684;3.862;2023-03-24T04:18:16;3.67;;;1.70;;
10550;SDS011;5324;50.684;3.862;2023-03-24T04:20:52;5.10;;;1.70;;
10550;SDS011;5324;50.684;3.862;2023-03-24T04:23:29;4.73;;;2.43;;
10550;SDS011;5324;50.684;3.862;2023-03-24T04:26:02;9.47;;;2.07;;
10550;SDS011;5324;50.684;3.862;2023-03-24T04:31:37;4.70;;;1.77;;
10550;SDS011;5324;50.684;3.862;2023-03-24T04:34:17;4.10;;;1.90;;
10550;SDS011;5324;50.684;3.862;2023-03-24T04:39:15;8.13;;;2.10;;
10550;SDS011;5324;50.684;3.862;2023-03-24T04:41:42;5.20;;;1.67;;
10550;SDS011;5324;50.684;3.862;2023-03-24T04:44:11;6.23;;;1.87;;
10550;SDS011;5324;50.684;3.862;2023-03-24T04:46:41;5.10;;;1.83;;
10550;SDS011;5324;50.684;3.862;2023-03-24T04:49:08;8.50;;;2.00;;
10550;SDS011;5324;50.684;3.862;2023-03-24T04:51:34;8.50;;;1.80;;
10550;SDS011;5324;50.684;3.862;2023-03-24T04:54:01;5.87;;;1.63;;
10550;SDS011;5324;50.684;3.862;2023-03-24T04:58:53;6.20;;;1.63;;
10550;SDS011;5324;50.684;3.862;2023-03-24T05:01:19;7.37;;;2.30;;
10550;SDS011;5324;50.684;3.862;2023-03-24T05:03:45;4.97;;;1.80;;
10550;SDS011;5324;50.684;3.862;2023-03-24T05:06:11;5.17;;;1.70;;
10550;SDS011;5324;50.684;3.862;2023-03-24T05:08:38;7.27;;;1.90;;
10550;SDS011;5324;50.684;3.862;2023-03-24T05:11:04;5.33;;;2.03;;
10550;SDS011;5324;50.684;3.862;2023-03-24T05:13:30;6.07;;;1.93;;
10550;SDS011;5324;50.684;3.862;2023-03-24T05:15:56;6.10;;;1.60;;
10550;SDS011;5324;50.684;3.862;2023-03-24T05:18:23;8.57;;;2.00;;
10550;SDS011;5324;50.684;3.862;2023-03-24T05:20:49;6.23;;;2.03;;
10550;SDS011;5324;50.684;3.862;2023-03-24T05:23:15;3.80;;;1.80;;
10550;SDS011;5324;50.684;3.862;2023-03-24T05:25:41;5.80;;;1.97;;
10550;SDS011;5324;50.684;3.862;2023-03-24T05:28:07;7.93;;;1.97;;
10550;SDS011;5324;50.684;3.862;2023-03-24T05:30:33;6.73;;;2.10;;
10550;SDS011;5324;50.684;3.862;2023-03-24T05:32:59;4.07;;;1.33;;
10550;SDS011;5324;50.684;3.862;2023-03-24T05:35:25;10.20;;;2.00;;
10550;SDS011;5324;50.684;3.862;2023-03-24T05:37:51;5.47;;;1.90;;
10550;SDS011;5324;50.684;3.862;2023-03-24T05:40:17;6.73;;;2.13;;
10550;SDS011;5324;50.684;3.862;2023-03-24T05:42:43;4.87;;;1.47;;
10550;SDS011;5324;50.684;3.862;2023-03-24T05:45:10;7.10;;;1.90;;
10550;SDS011;5324;50.684;3.862;2023-03-24T05:47:36;5.13;;;1.80;;
10550;SDS011;5324;50.684;3.862;2023-03-24T05:50:02;4.43;;;1.60;;
10550;SDS011;5324;50.684;3.862;2023-03-24T05:52:28;4.73;;;2.20;;
10550;SDS011;5324;50.684;3.862;2023-03-24T05:54:55;6.87;;;2.10;;
10550;SDS011;5324;50.684;3.862;2023-03-24T05:57:22;6.97;;;2.10;;
10550;SDS011;5324;50.684;3.862;2023-03-24T05:59:48;4.27;;;2.13;;
10550;SDS011;5324;50.684;3.862;2023-03-24T06:02:16;5.17;;;1.43;;
10550;SDS011;5324;50.684;3.862;2023-03-24T06:04:42;7.23;;;1.83;;
10550;SDS011;5324;50.684;3.862;2023-03-24T06:07:13;6.87;;;1.70;;
10550;SDS011;5324;50.684;3.862;2023-03-24T06:09:39;7.03;;;2.07;;
10550;SDS011;5324;50.684;3.862;2023-03-24T06:12:11;8.77;;;1.80;;
10550;SDS011;5324;50.684;3.862;2023-03-24T06:14:37;7.00;;;1.97;;
10550;SDS011;5324;50.684;3.862;2023-03-24T06:17:05;11.87;;;2.07;;
10550;SDS011;5324;50.684;3.862;2023-03-24T06:19:31;5.53;;;2.00;;
10550;SDS011;5324;50.684;3.862;2023-03-24T06:21:58;4.83;;;2.00;;
10550;SDS011;5324;50.684;3.862;2023-03-24T06:24:27;7.00;;;2.27;;
10550;SDS011;5324;50.684;3.862;2023-03-24T06:26:53;8.03;;;2.63;;
10550;SDS011;5324;50.684;3.862;2023-03-24T06:29:25;8.83;;;2.13;;
10550;SDS011;5324;50.684;3.862;2023-03-24T06:31:51;10.40;;;4.77;;
10550;SDS011;5324;50.684;3.862;2023-03-24T06:34:17;10.07;;;5.13;;
10550;SDS011;5324;50.684;3.862;2023-03-24T06:36:43;10.53;;;4.87;;
10550;SDS011;5324;50.684;3.862;2023-03-24T06:39:09;10.33;;;4.27;;
10550;SDS011;5324;50.684;3.862;2023-03-24T06:41:35;7.73;;;2.90;;
10550;SDS011;5324;50.684;3.862;2023-03-24T06:44:01;5.73;;;3.13;;
10550;SDS011;5324;50.684;3.862;2023-03-24T06:46:27;7.30;;;2.93;;
10550;SDS011;5324;50.684;3.862;2023-03-24T06:48:53;6.07;;;3.20;;
10550;SDS011;5324;50.684;3.862;2023-03-24T06:51:19;7.33;;;2.93;;
10550;SDS011;5324;50.684;3.862;2023-03-24T06:53:46;8.37;;;2.57;;
10550;SDS011;5324;50.684;3.862;2023-03-24T06:56:11;6.87;;;2.00;;
10550;SDS011;5324;50.684;3.862;2023-03-24T06:58:41;7.43;;;2.20;;
10550;SDS011;5324;50.684;3.862;2023-03-24T07:01:07;8.07;;;2.60;;
10550;SDS011;5324;50.684;3.862;2023-03-24T07:03:33;5.27;;;2.10;;
10550;SDS011;5324;50.684;3.862;2023-03-24T07:06:00;3.63;;;2.27;;
10550;SDS011;5324;50.684;3.862;2023-03-24T07:08:26;4.73;;;2.10;;
10550;SDS011;5324;50.684;3.862;2023-03-24T07:10:52;9.00;;;2.53;;
10550;SDS011;5324;50.684;3.862;2023-03-24T07:13:18;4.03;;;2.17;;
10550;SDS011;5324;50.684;3.862;2023-03-24T07:15:44;5.53;;;2.20;;
10550;SDS011;5324;50.684;3.862;2023-03-24T07:18:10;8.13;;;2.73;;
10550;SDS011;5324;50.684;3.862;2023-03-24T07:20:37;5.40;;;2.10;;
10550;SDS011;5324;50.684;3.862;2023-03-24T07:23:03;7.73;;;2.23;;
10550;SDS011;5324;50.684;3.862;2023-03-24T07:25:29;5.70;;;2.33;;
10550;SDS011;5324;50.684;3.862;2023-03-24T07:27:55;7.33;;;2.23;;
10550;SDS011;5324;50.684;3.862;2023-03-24T07:30:22;6.93;;;2.33;;
10550;SDS011;5324;50.684;3.862;2023-03-24T07:32:48;8.97;;;2.30;;
10550;SDS011;5324;50.684;3.862;2023-03-24T07:35:14;8.07;;;2.43;;
10550;SDS011;5324;50.684;3.862;2023-03-24T07:37:41;9.80;;;2.47;;
10550;SDS011;5324;50.684;3.862;2023-03-24T07:40:07;4.23;;;2.40;;
10550;SDS011;5324;50.684;3.862;2023-03-24T07:42:40;4.87;;;2.20;;
10550;SDS011;5324;50.684;3.862;2023-03-24T07:45:10;9.30;;;2.60;;
10550;SDS011;5324;50.684;3.862;2023-03-24T07:47:37;6.50;;;2.07;;
10550;SDS011;5324;50.684;3.862;2023-03-24T07:50:06;7.10;;;2.13;;
10550;SDS011;5324;50.684;3.862;2023-03-24T07:52:36;5.30;;;2.43;;
10550;SDS011;5324;50.684;3.862;2023-03-24T07:55:03;4.57;;;2.00;;
10550;SDS011;5324;50.684;3.862;2023-03-24T07:57:30;3.97;;;1.80;;
10550;SDS011;5324;50.684;3.862;2023-03-24T07:59:56;5.00;;;2.17;;
10550;SDS011;5324;50.684;3.862;2023-03-24T08:02:22;6.87;;;2.33;;
10550;SDS011;5324;50.684;3.862;2023-03-24T08:04:50;5.83;;;2.10;;
10550;SDS011;5324;50.684;3.862;2023-03-24T08:07:20;4.03;;;2.10;;
10550;SDS011;5324;50.684;3.862;2023-03-24T08:09:46;7.77;;;2.07;;
10550;SDS011;5324;50.684;3.862;2023-03-24T08:12:12;8.90;;;1.90;;
10550;SDS011;5324;50.684;3.862;2023-03-24T08:14:38;4.77;;;1.90;;
10550;SDS011;5324;50.684;3.862;2023-03-24T08:17:04;6.70;;;2.20;;
10550;SDS011;5324;50.684;3.862;2023-03-24T08:19:30;8.07;;;1.83;;
10550;SDS011;5324;50.684;3.862;2023-03-24T08:21:56;4.27;;;1.97;;
10550;SDS011;5324;50.684;3.862;2023-03-24T08:24:22;8.43;;;1.83;;
10550;SDS011;5324;50.684;3.862;2023-03-24T08:26:48;7.83;;;2.20;;
10550;SDS011;5324;50.684;3.862;2023-03-24T08:29:14;3.90;;;1.63;;
10550;SDS011;5324;50.684;3.862;2023-03-24T08:31:40;11.03;;;2.10;;
10550;SDS011;5324;50.684;3.862;2023-03-24T08:34:08;7.77;;;2.40;;
10550;SDS011;5324;50.684;3.862;2023-03-24T08:36:35;4.77;;;1.73;;
10550;SDS011;5324;50.684;3.862;2023-03-24T08:39:01;9.10;;;2.20;;
10550;SDS011;5324;50.684;3.862;2023-03-24T08:41:28;4.83;;;1.93;;
10550;SDS011;5324;50.684;3.862;2023-03-24T08:44:01;6.00;;;2.03;;
10550;SDS011;5324;50.684;3.862;2023-03-24T08:46:31;9.73;;;2.30;;
10550;SDS011;5324;50.684;3.862;2023-03-24T08:48:58;7.83;;;2.10;;
10550;SDS011;5324;50.684;3.862;2023-03-24T08:51:24;5.67;;;2.10;;
10550;SDS011;5324;50.684;3.862;2023-03-24T08:53:51;5.60;;;2.23;;
10550;SDS011;5324;50.684;3.862;2023-03-24T08:56:17;4.20;;;1.87;;
10550;SDS011;5324;50.684;3.862;2023-03-24T08:58:44;5.43;;;1.93;;
10550;SDS011;5324;50.684;3.862;2023-03-24T09:01:15;6.33;;;2.30;;
10550;SDS011;5324;50.684;3.862;2023-03-24T09:03:41;6.77;;;2.40;;
10550;SDS011;5324;50.684;3.862;2023-03-24T09:06:08;8.33;;;2.03;;
10550;SDS011;5324;50.684;3.862;2023-03-24T09:08:35;7.63;;;2.10;;
10550;SDS011;5324;50.684;3.862;2023-03-24T09:11:01;3.73;;;1.70;;
10550;SDS011;5324;50.684;3.862;2023-03-24T09:13:28;7.90;;;1.93;;
10550;SDS011;5324;50.684;3.862;2023-03-24T09:15:57;5.80;;;2.03;;
10550;SDS011;5324;50.684;3.862;2023-03-24T09:18:23;7.67;;;2.03;;
10550;SDS011;5324;50.684;3.862;2023-03-24T09:20:49;5.83;;;2.33;;
10550;SDS011;5324;50.684;3.862;2023-03-24T09:23:16;4.27;;;1.70;;
10550;SDS011;5324;50.684;3.862;2023-03-24T09:25:42;6.80;;;2.13;;
10550;SDS011;5324;50.684;3.862;2023-03-24T09:28:08;7.53;;;2.17;;
10550;SDS011;5324;50.684;3.862;2023-03-24T09:30:34;7.33;;;1.77;;
10550;SDS011;5324;50.684;3.862;2023-03-24T09:33:01;5.57;;;2.00;;
10550;SDS011;5324;50.684;3.862;2023-03-24T09:35:27;8.40;;;1.93;;
10550;SDS011;5324;50.684;3.862;2023-03-24T09:37:53;4.00;;;1.93;;
10550;SDS011;5324;50.684;3.862;2023-03-24T09:40:24;4.97;;;1.80;;
10550;SDS011;5324;50.684;3.862;2023-03-24T09:42:55;6.23;;;1.90;;
10550;SDS011;5324;50.684;3.862;2023-03-24T09:45:22;7.47;;;2.17;;
10550;SDS011;5324;50.684;3.862;2023-03-24T09:50:26;10.00;;;2.67;;
10550;SDS011;5324;50.684;3.862;2023-03-24T09:52:54;6.13;;;2.20;;
10550;SDS011;5324;50.684;3.862;2023-03-24T09:55:23;6.23;;;2.30;;
10550;SDS011;5324;50.684;3.862;2023-03-24T09:57:49;12.43;;;3.03;;
10550;SDS011;5324;50.684;3.862;2023-03-24T10:00:20;6.53;;;2.03;;
10550;SDS011;5324;50.684;3.862;2023-03-24T10:02:46;7.73;;;2.23;;
10550;SDS011;5324;50.684;3.862;2023-03-24T10:05:17;6.30;;;1.40;;
10550;SDS011;5324;50.684;3.862;2023-03-24T10:07:48;10.73;;;2.17;;
10550;SDS011;5324;50.684;3.862;2023-03-24T10:13:17;7.17;;;2.10;;
10550;SDS011;5324;50.684;3.862;2023-03-24T10:15:50;4.87;;;1.93;;
10550;SDS011;5324;50.684;3.862;2023-03-24T10:18:22;7.90;;;2.07;;
10550;SDS011;5324;50.684;3.862;2023-03-24T10:20:53;8.67;;;1.80;;
10550;SDS011;5324;50.684;3.862;2023-03-24T10:25:54;5.13;;;1.73;;
10550;SDS011;5324;50.684;3.862;2023-03-24T10:30:56;6.37;;;1.90;;
10550;SDS011;5324;50.684;3.862;2023-03-24T10:33:25;10.03;;;1.63;;
10550;SDS011;5324;50.684;3.862;2023-03-24T10:36:03;11.00;;;2.30;;
10550;SDS011;5324;50.684;3.862;2023-03-24T10:38:29;8.70;;;2.40;;
10550;SDS011;5324;50.684;3.862;2023-03-24T10:40:55;6.30;;;1.90;;
10550;SDS011;5324;50.684;3.862;2023-03-24T10:43:22;10.33;;;2.17;;
10550;SDS011;5324;50.684;3.862;2023-03-24T10:45:51;7.77;;;1.60;;
10550;SDS011;5324;50.684;3.862;2023-03-24T10:51:02;6.80;;;1.77;;
10550;SDS011;5324;50.684;3.862;2023-03-24T10:53:30;4.00;;;1.80;;
10550;SDS011;5324;50.684;3.862;2023-03-24T10:55:57;5.67;;;2.00;;
10550;SDS011;5324;50.684;3.862;2023-03-24T10:58:36;5.43;;;1.60;;
10550;SDS011;5324;50.684;3.862;2023-03-24T11:01:06;4.93;;;1.63;;
10550;SDS011;5324;50.684;3.862;2023-03-24T11:03:33;7.37;;;2.07;;
10550;SDS011;5324;50.684;3.862;2023-03-24T11:06:00;6.70;;;1.83;;
10550;SDS011;5324;50.684;3.862;2023-03-24T11:10:59;5.70;;;1.83;;
10550;SDS011;5324;50.684;3.862;2023-03-24T11:13:32;5.23;;;1.83;;
10550;SDS011;5324;50.684;3.862;2023-03-24T11:18:27;4.57;;;2.00;;
10550;SDS011;5324;50.684;3.862;2023-03-24T11:20:57;7.43;;;2.10;;
10550;SDS011;5324;50.684;3.862;2023-03-24T11:23:31;7.70;;;1.90;;
10550;SDS011;5324;50.684;3.862;2023-03-24T11:26:10;7.90;;;1.90;;
10550;SDS011;5324;50.684;3.862;2023-03-24T11:28:42;8.67;;;1.97;;
10550;SDS011;5324;50.684;3.862;2023-03-24T11:31:10;5.00;;;1.60;;
10550;SDS011;5324;50.684;3.862;2023-03-24T11:34:01;4.97;;;1.60;;
10550;SDS011;5324;50.684;3.862;2023-03-24T11:41:26;4.13;;;1.80;;
10550;SDS011;5324;50.684;3.862;2023-03-24T11:46:37;6.17;;;2.00;;
10550;SDS011;5324;50.684;3.862;2023-03-24T11:49:04;6.37;;;1.80;;
10550;SDS011;5324;50.684;3.862;2023-03-24T11:51:33;8.60;;;2.10;;
10550;SDS011;5324;50.684;3.862;2023-03-24T11:53:59;6.20;;;1.67;;
10550;SDS011;5324;50.684;3.862;2023-03-24T11:56:40;3.67;;;1.30;;
10550;SDS011;5324;50.684;3.862;2023-03-24T12:01:36;4.67;;;1.60;;
10550;SDS011;5324;50.684;3.862;2023-03-24T12:12:04;5.23;;;1.70;;
10550;SDS011;5324;50.684;3.862;2023-03-24T12:19:52;4.93;;;1.63;;
10550;SDS011;5324;50.684;3.862;2023-03-24T12:27:27;6.00;;;1.90;;
10550;SDS011;5324;50.684;3.862;2023-03-24T12:40:46;3.37;;;1.47;;
10550;SDS011;5324;50.684;3.862;2023-03-24T12:43:29;3.03;;;1.17;;
10550;SDS011;5324;50.684;3.862;2023-03-24T12:45:57;2.57;;;1.10;;
10550;SDS011;5324;50.684;3.862;2023-03-24T12:51:03;2.57;;;1.17;;
10550;SDS011;5324;50.684;3.862;2023-03-24T12:56:30;2.87;;;1.00;;
10550;SDS011;5324;50.684;3.862;2023-03-24T12:58:59;4.53;;;1.50;;
10550;SDS011;5324;50.684;3.862;2023-03-24T13:01:40;3.50;;;0.97;;
10550;SDS011;5324;50.684;3.862;2023-03-24T13:04:12;3.37;;;1.63;;
10550;SDS011;5324;50.684;3.862;2023-03-24T13:06:44;4.50;;;1.43;;
10550;SDS011;5324;50.684;3.862;2023-03-24T13:15:01;3.23;;;1.43;;
10550;SDS011;5324;50.684;3.862;2023-03-24T13:20:04;4.80;;;1.60;;
10550;SDS011;5324;50.684;3.862;2023-03-24T13:22:31;7.27;;;1.90;;
10550;SDS011;5324;50.684;3.862;2023-03-24T13:24:58;6.57;;;1.77;;
10550;SDS011;5324;50.684;3.862;2023-03-24T13:27:43;8.50;;;2.00;;
10550;SDS011;5324;50.684;3.862;2023-03-24T13:30:14;4.73;;;1.67;;
10550;SDS011;5324;50.684;3.862;2023-03-24T13:32:51;3.73;;;1.47;;
10550;SDS011;5324;50.684;3.862;2023-03-24T13:37:50;5.87;;;1.73;;
10550;SDS011;5324;50.684;3.862;2023-03-24T13:40:18;3.67;;;1.43;;
10550;SDS011;5324;50.684;3.862;2023-03-24T13:45:22;3.90;;;1.67;;
10550;SDS011;5324;50.684;3.862;2023-03-24T13:47:49;4.70;;;1.90;;
10550;SDS011;5324;50.684;3.862;2023-03-24T13:50:18;3.67;;;1.47;;
10550;SDS011;5324;50.684;3.862;2023-03-24T13:52:45;4.17;;;1.80;;
10550;SDS011;5324;50.684;3.862;2023-03-24T13:55:13;6.03;;;2.03;;
10550;SDS011;5324;50.684;3.862;2023-03-24T13:57:49;5.00;;;1.57;;
10550;SDS011;5324;50.684;3.862;2023-03-24T14:00:21;4.27;;;1.60;;
10550;SDS011;5324;50.684;3.862;2023-03-24T14:05:33;5.07;;;1.50;;
10550;SDS011;5324;50.684;3.862;2023-03-24T14:15:50;4.03;;;1.43;;
10550;SDS011;5324;50.684;3.862;2023-03-24T14:23:23;4.20;;;1.50;;
10550;SDS011;5324;50.684;3.862;2023-03-24T14:25:56;4.33;;;1.37;;
10550;SDS011;5324;50.684;3.862;2023-03-24T14:28:24;1.37;;;0.97;;
10550;SDS011;5324;50.684;3.862;2023-03-24T14:30:59;3.37;;;1.40;;
10550;SDS011;5324;50.684;3.862;2023-03-24T14:33:26;2.83;;;1.33;;
10550;SDS011;5324;50.684;3.862;2023-03-24T14:35:56;3.20;;;1.00;;
10550;SDS011;5324;50.684;3.862;2023-03-24T14:38:25;2.83;;;1.30;;
10550;SDS011;5324;50.684;3.862;2023-03-24T14:40:55;4.73;;;1.30;;
10550;SDS011;5324;50.684;3.862;2023-03-24T14:43:25;3.50;;;1.40;;
10550;SDS011;5324;50.684;3.862;2023-03-24T14:48:40;2.07;;;1.03;;
10550;SDS011;5324;50.684;3.862;2023-03-24T14:51:17;4.00;;;1.20;;
10550;SDS011;5324;50.684;3.862;2023-03-24T14:53:49;2.50;;;1.13;;
10550;SDS011;5324;50.684;3.862;2023-03-24T14:56:16;2.77;;;1.10;;
10550;SDS011;5324;50.684;3.862;2023-03-24T14:58:43;2.13;;;0.90;;
10550;SDS011;5324;50.684;3.862;2023-03-24T15:01:11;3.57;;;1.20;;
10550;SDS011;5324;50.684;3.862;2023-03-24T15:03:50;2.97;;;1.33;;
10550;SDS011;5324;50.684;3.862;2023-03-24T15:06:19;5.13;;;1.53;;
10550;SDS011;5324;50.684;3.862;2023-03-24T15:08:57;3.20;;;1.37;;
10550;SDS011;5324;50.684;3.862;2023-03-24T15:11:24;2.30;;;1.33;;
10550;SDS011;5324;50.684;3.862;2023-03-24T15:13:52;2.87;;;0.97;;
10550;SDS011;5324;50.684;3.862;2023-03-24T15:16:20;2.73;;;1.20;;
10550;SDS011;5324;50.684;3.862;2023-03-24T15:18:47;1.47;;;1.10;;
10550;SDS011;5324;50.684;3.862;2023-03-24T15:21:15;2.43;;;1.23;;
10550;SDS011;5324;50.684;3.862;2023-03-24T15:23:45;2.63;;;1.13;;
10550;SDS011;5324;50.684;3.862;2023-03-24T15:26:12;1.57;;;0.90;;
10550;SDS011;5324;50.684;3.862;2023-03-24T15:28:38;2.50;;;1.40;;
10550;SDS011;5324;50.684;3.862;2023-03-24T15:31:04;3.70;;;1.30;;
10550;SDS011;5324;50.684;3.862;2023-03-24T15:33:37;3.47;;;2.10;;
10550;SDS011;5324;50.684;3.862;2023-03-24T15:36:07;2.60;;;1.60;;
10550;SDS011;5324;50.684;3.862;2023-03-24T15:38:37;3.20;;;1.23;;
10550;SDS011;5324;50.684;3.862;2023-03-24T15:41:10;3.70;;;1.20;;
10550;SDS011;5324;50.684;3.862;2023-03-24T15:43:40;2.03;;;1.40;;
10550;SDS011;5324;50.684;3.862;2023-03-24T15:46:18;4.10;;;1.60;;
10550;SDS011;5324;50.684;3.862;2023-03-24T15:48:45;3.73;;;1.30;;
10550;SDS011;5324;50.684;3.862;2023-03-24T15:51:11;4.13;;;1.20;;
10550;SDS011;5324;50.684;3.862;2023-03-24T16:01:17;3.40;;;1.30;;
10550;SDS011;5324;50.684;3.862;2023-03-24T16:03:44;3.90;;;1.40;;
10550;SDS011;5324;50.684;3.862;2023-03-24T16:06:13;3.57;;;1.23;;
10550;SDS011;5324;50.684;3.862;2023-03-24T16:08:40;2.73;;;1.30;;
10550;SDS011;5324;50.684;3.862;2023-03-24T16:11:13;3.03;;;1.30;;
10550;SDS011;5324;50.684;3.862;2023-03-24T16:13:41;5.23;;;1.50;;
10550;SDS011;5324;50.684;3.862;2023-03-24T16:18:38;2.57;;;1.30;;
10550;SDS011;5324;50.684;3.862;2023-03-24T16:21:17;2.20;;;1.27;;
10550;SDS011;5324;50.684;3.862;2023-03-24T16:23:44;3.77;;;1.43;;
10550;SDS011;5324;50.684;3.862;2023-03-24T16:28:39;2.87;;;1.27;;
10550;SDS011;5324;50.684;3.862;2023-03-24T16:31:05;1.73;;;1.20;;
10550;SDS011;5324;50.684;3.862;2023-03-24T16:33:32;2.50;;;1.40;;
10550;SDS011;5324;50.684;3.862;2023-03-24T16:35:59;2.00;;;1.20;;
10550;SDS011;5324;50.684;3.862;2023-03-24T16:38:25;1.23;;;0.90;;
10550;SDS011;5324;50.684;3.862;2023-03-24T16:40:52;2.60;;;0.80;;
10550;SDS011;5324;50.684;3.862;2023-03-24T16:43:19;2.37;;;1.00;;
10550;SDS011;5324;50.684;3.862;2023-03-24T16:45:45;0.70;;;0.70;;
10550;SDS011;5324;50.684;3.862;2023-03-24T16:48:12;1.13;;;0.90;;
10550;SDS011;5324;50.684;3.862;2023-03-24T16:50:42;1.50;;;0.87;;
10550;SDS011;5324;50.684;3.862;2023-03-24T16:53:08;3.13;;;1.00;;
10550;SDS011;5324;50.684;3.862;2023-03-24T16:55:35;2.93;;;1.10;;
10550;SDS011;5324;50.684;3.862;2023-03-24T16:58:01;1.77;;;0.97;;
10550;SDS011;5324;50.684;3.862;2023-03-24T17:00:27;2.77;;;1.17;;
10550;SDS011;5324;50.684;3.862;2023-03-24T17:02:54;1.43;;;1.10;;
10550;SDS011;5324;50.684;3.862;2023-03-24T17:05:27;1.10;;;1.00;;
10550;SDS011;5324;50.684;3.862;2023-03-24T17:07:54;0.90;;;0.90;;
10550;SDS011;5324;50.684;3.862;2023-03-24T17:10:21;2.00;;;1.20;;
10550;SDS011;5324;50.684;3.862;2023-03-24T17:12:47;1.10;;;1.00;;
10550;SDS011;5324;50.684;3.862;2023-03-24T17:15:18;1.83;;;1.40;;
10550;SDS011;5324;50.684;3.862;2023-03-24T17:17:45;1.97;;;1.30;;
10550;SDS011;5324;50.684;3.862;2023-03-24T17:20:11;2.13;;;1.00;;
10550;SDS011;5324;50.684;3.862;2023-03-24T17:22:37;2.40;;;1.00;;
10550;SDS011;5324;50.684;3.862;2023-03-24T17:25:04;1.37;;;1.27;;
10550;SDS011;5324;50.684;3.862;2023-03-24T17:27:30;1.77;;;1.03;;
10550;SDS011;5324;50.684;3.862;2023-03-24T17:29:56;2.53;;;0.80;;
10550;SDS011;5324;50.684;3.862;2023-03-24T17:32:29;3.00;;;1.07;;
10550;SDS011;5324;50.684;3.862;2023-03-24T17:34:56;2.00;;;1.20;;
10550;SDS011;5324;50.684;3.862;2023-03-24T17:37:22;2.77;;;1.07;;
10550;SDS011;5324;50.684;3.862;2023-03-24T17:39:48;2.13;;;1.20;;
10550;SDS011;5324;50.684;3.862;2023-03-24T17:42:14;1.57;;;0.90;;
10550;SDS011;5324;50.684;3.862;2023-03-24T17:44:40;2.27;;;1.13;;